createdAt,value
2019-05-22T00:00:26.855Z,94814.70
2019-05-22T00:02:59.943Z,94812.88
2019-05-22T00:05:34.297Z,94816.56
2019-05-22T00:08:09.382Z,94821.84
2019-05-22T00:10:43.765Z,94812.52
2019-05-22T00:13:19.308Z,94814.62
2019-05-22T00:15:54.401Z,94808.47
2019-05-22T00:18:28.287Z,94810.66
2019-05-22T00:21:01.639Z,94816.72
2019-05-22T00:23:33.164Z,94814.03
2019-05-22T00:26:06.174Z,94819.13
2019-05-22T00:28:39.717Z,94823.72
2019-05-22T00:31:14.535Z,94823.27
2019-05-22T00:33:47.962Z,94828.79
2019-05-22T00:36:20.909Z,94823.48
2019-05-22T00:38:54.890Z,94828.16
2019-05-22T00:41:29.327Z,94826.77
2019-05-22T00:44:01.866Z,94828.13
2019-05-22T00:46:36.204Z,94826.52
2019-05-22T00:49:10.803Z,94819.01
2019-05-22T00:52:05.229Z,94818.80
2019-05-22T00:54:45.445Z,94816.56
2019-05-22T00:57:35.251Z,94821.00
2019-05-22T01:00:24.939Z,94818.99
2019-05-22T01:02:59.601Z,94817.67
2019-05-22T01:05:33.298Z,94816.22
2019-05-22T01:08:07.326Z,94822.05
2019-05-22T01:10:41.403Z,94818.87
2019-05-22T01:13:15.515Z,94822.12
2019-05-22T01:15:49.354Z,94818.67
2019-05-22T01:18:26.159Z,94828.77
2019-05-22T01:21:01.333Z,94833.80
2019-05-22T01:23:39.340Z,94833.00
2019-05-22T01:26:16.797Z,94836.45
2019-05-22T01:28:50.027Z,94840.95
2019-05-22T01:31:33.460Z,94837.21
2019-05-22T01:34:16.439Z,94839.91
2019-05-22T01:36:54.135Z,94833.80
2019-05-22T01:39:48.129Z,94845.06
2019-05-22T01:42:26.056Z,94833.27
2019-05-22T01:45:05.772Z,94833.84
2019-05-22T01:48:06.344Z,94838.70
2019-05-22T01:50:55.796Z,94838.13
2019-05-22T01:53:37.961Z,94839.91
2019-05-22T01:56:13.071Z,94835.00
2019-05-22T01:58:47.950Z,94842.97
2019-05-22T02:01:22.308Z,94831.63
2019-05-22T02:03:58.669Z,94830.86
2019-05-22T02:06:32.743Z,94831.81
2019-05-22T02:09:27.977Z,94831.86
2019-05-22T02:12:08.355Z,94842.23
2019-05-22T02:14:43.753Z,94840.59
2019-05-22T02:17:19.440Z,94842.52
2019-05-22T02:19:52.746Z,94845.33
2019-05-22T02:22:27.208Z,94843.77
2019-05-22T02:25:01.218Z,94844.02
2019-05-22T02:27:34.460Z,94852.81
2019-05-22T02:30:07.927Z,94850.36
2019-05-22T02:32:41.406Z,94853.63
2019-05-22T02:35:14.991Z,94855.03
2019-05-22T02:37:48.597Z,94854.79
2019-05-22T02:40:27.480Z,94854.42
2019-05-22T02:43:00.131Z,94865.75
2019-05-22T02:45:32.360Z,94865.23
2019-05-22T02:48:08.074Z,94858.70
2019-05-22T02:50:42.228Z,94852.61
2019-05-22T02:53:16.383Z,94850.70
2019-05-22T02:55:48.979Z,94845.20
2019-05-22T02:58:22.939Z,94849.37
2019-05-22T03:01:01.720Z,94854.91
2019-05-22T03:03:36.982Z,94855.23
2019-05-22T03:06:12.923Z,94868.10
2019-05-22T03:09:26.990Z,94856.71
2019-05-22T03:12:04.235Z,94853.16
2019-05-22T03:14:38.970Z,94856.09
2019-05-22T03:17:22.974Z,94863.28
2019-05-22T03:19:57.089Z,94856.71
2019-05-22T03:22:35.040Z,94862.14
2019-05-22T03:25:13.905Z,94864.60
2019-05-22T03:27:50.533Z,94855.47
2019-05-22T03:30:30.047Z,94863.42
2019-05-22T03:33:06.339Z,94865.55
2019-05-22T03:35:48.808Z,94868.53
2019-05-22T03:38:23.382Z,94857.03
2019-05-22T03:40:57.321Z,94860.82
2019-05-22T03:43:32.598Z,94855.48
2019-05-22T03:46:14.271Z,94862.77
2019-05-22T03:48:47.137Z,94860.48
2019-05-22T03:51:20.584Z,94863.44
2019-05-22T03:53:54.511Z,94861.30
2019-05-22T03:56:27.288Z,94866.61
2019-05-22T03:59:01.184Z,94867.55
2019-05-22T04:01:34.853Z,94868.09
2019-05-22T04:04:10.133Z,94871.63
2019-05-22T04:06:43.036Z,94873.24
2019-05-22T04:09:23.567Z,94868.41
2019-05-22T04:11:57.121Z,94869.58
2019-05-22T04:14:38.156Z,94868.75
2019-05-22T04:17:13.230Z,94869.75
2019-05-22T04:19:50.143Z,94865.25
2019-05-22T04:22:20.361Z,94864.99
2019-05-22T04:24:53.014Z,94868.84
2019-05-22T04:27:25.850Z,94872.16
2019-05-22T04:29:59.427Z,94865.13
2019-05-22T04:32:35.192Z,94867.30
2019-05-22T04:35:12.340Z,94865.63
2019-05-22T04:37:47.395Z,94865.70
2019-05-22T04:40:56.012Z,94867.23
2019-05-22T04:43:34.243Z,94866.19
2019-05-22T04:46:10.109Z,94862.20
2019-05-22T04:48:46.132Z,94866.61
2019-05-22T04:51:30.247Z,94867.76
2019-05-22T04:54:03.013Z,94873.51
2019-05-22T04:56:35.814Z,94869.15
2019-05-22T04:59:08.477Z,94871.92
2019-05-22T05:01:41.910Z,94874.94
2019-05-22T05:04:15.388Z,94870.77
2019-05-22T05:06:50.112Z,94864.88
2019-05-22T05:09:22.689Z,94858.63
2019-05-22T05:11:55.645Z,94862.22
2019-05-22T05:14:28.971Z,94857.56
2019-05-22T05:17:01.957Z,94855.23
2019-05-22T05:19:34.757Z,94854.95
2019-05-22T05:22:07.573Z,94857.67
2019-05-22T05:24:40.084Z,94852.88
2019-05-22T05:27:13.342Z,94858.23
2019-05-22T05:29:46.696Z,94848.62
2019-05-22T05:32:18.769Z,94848.34
2019-05-22T05:35:05.830Z,94860.88
2019-05-22T05:37:39.208Z,94857.68
2019-05-22T05:40:41.866Z,94859.30
2019-05-22T05:43:24.489Z,94855.23
2019-05-22T05:45:57.086Z,94864.55
2019-05-22T05:48:31.795Z,94865.09
2019-05-22T05:51:42.742Z,94869.90
2019-05-22T05:54:19.560Z,94870.10
2019-05-22T05:56:52.638Z,94869.56
2019-05-22T05:59:26.746Z,94860.12
2019-05-22T06:02:00.821Z,94861.97
2019-05-22T06:04:38.752Z,94870.73
2019-05-22T06:07:23.596Z,94874.41
2019-05-22T06:10:25.849Z,94877.76
2019-05-22T06:13:00.668Z,94875.44
2019-05-22T06:15:47.018Z,94884.94
2019-05-22T06:18:37.665Z,94887.82
2019-05-22T06:21:10.983Z,94884.75
2019-05-22T06:24:28.097Z,94892.90
2019-05-22T06:27:25.349Z,94889.13
2019-05-22T06:30:04.351Z,94889.14
2019-05-22T06:33:15.866Z,94884.51
2019-05-22T06:35:50.154Z,94889.23
2019-05-22T06:38:52.014Z,94878.55
2019-05-22T06:41:26.880Z,94885.02
2019-05-22T06:44:37.860Z,94885.64
2019-05-22T06:47:30.907Z,94882.83
2019-05-22T06:50:04.168Z,94885.80
2019-05-22T06:52:36.791Z,94881.09
2019-05-22T06:55:10.135Z,94881.80
2019-05-22T06:57:42.556Z,94879.97
2019-05-22T07:00:22.493Z,94878.06
2019-05-22T07:02:54.802Z,94864.77
2019-05-22T07:05:28.452Z,94867.71
2019-05-22T07:08:02.800Z,94862.13
2019-05-22T07:10:36.125Z,94860.70
2019-05-22T07:13:10.802Z,94858.48
2019-05-22T07:15:46.572Z,94847.01
2019-05-22T07:18:21.045Z,94842.59
2019-05-22T07:20:57.022Z,94842.52
2019-05-22T07:23:30.651Z,94840.52
2019-05-22T07:26:03.669Z,94842.54
2019-05-22T07:28:35.092Z,94837.78
2019-05-22T07:31:08.753Z,94827.83
2019-05-22T07:33:41.765Z,94831.42
2019-05-22T07:36:17.020Z,94823.86
2019-05-22T07:38:49.854Z,94828.86
2019-05-22T07:41:22.968Z,94827.56
2019-05-22T07:43:54.591Z,94824.16
2019-05-22T07:46:30.808Z,94828.74
2019-05-22T07:49:02.340Z,94822.77
2019-05-22T07:51:50.528Z,94825.92
2019-05-22T07:54:13.622Z,94827.31
2019-05-22T07:56:47.251Z,94820.25
2019-05-22T07:59:20.290Z,94819.48
2019-05-22T08:01:53.251Z,94810.44
2019-05-22T08:04:24.437Z,94811.98
2019-05-22T08:06:56.970Z,94810.89
2019-05-22T08:09:30.412Z,94810.63
2019-05-22T08:12:02.710Z,94808.03
2019-05-22T08:14:35.818Z,94798.80
2019-05-22T08:17:09.128Z,94801.71
2019-05-22T08:19:41.777Z,94803.28
2019-05-22T08:22:15.732Z,94799.02
2019-05-22T08:24:53.158Z,94808.98
2019-05-22T08:27:26.318Z,94802.09
2019-05-22T08:29:59.273Z,94805.77
2019-05-22T08:32:33.857Z,94807.06
2019-05-22T08:35:07.898Z,94806.67
2019-05-22T08:37:41.131Z,94809.33
2019-05-22T08:40:16.461Z,94812.88
2019-05-22T08:42:49.367Z,94805.04
2019-05-22T08:45:20.831Z,94810.48
2019-05-22T08:47:53.194Z,94816.94
2019-05-22T08:50:27.469Z,94812.45
2019-05-22T08:53:00.259Z,94817.29
2019-05-22T08:55:37.286Z,94813.06
2019-05-22T08:58:11.806Z,94820.46
2019-05-22T09:00:45.394Z,94818.00
2019-05-22T09:03:18.368Z,94818.09
2019-05-22T09:05:49.439Z,94813.95
2019-05-22T09:08:23.042Z,94812.58
2019-05-22T09:10:55.874Z,94810.97
2019-05-22T09:13:28.457Z,94806.05
2019-05-22T09:16:02.263Z,94808.99
2019-05-22T09:18:35.380Z,94814.39
2019-05-22T09:21:07.995Z,94808.67
2019-05-22T09:23:41.135Z,94802.39
2019-05-22T09:26:14.697Z,94801.13
2019-05-22T09:28:47.682Z,94796.50
2019-05-22T09:31:19.531Z,94801.28
2019-05-22T09:33:51.981Z,94799.77
2019-05-22T09:36:24.926Z,94796.18
2019-05-22T09:38:56.283Z,94788.87
2019-05-22T09:41:29.171Z,94786.55
2019-05-22T09:43:59.974Z,94789.27
2019-05-22T09:46:32.577Z,94782.02
2019-05-22T09:49:06.286Z,94782.39
2019-05-22T09:51:39.332Z,94784.30
2019-05-22T09:54:10.640Z,94785.06
2019-05-22T09:56:47.185Z,94788.98
2019-05-22T09:59:20.511Z,94788.39
2019-05-22T10:01:53.426Z,94776.34
2019-05-22T10:04:25.037Z,94771.24
2019-05-22T10:06:58.572Z,94780.23
2019-05-22T10:09:31.615Z,94770.27
2019-05-22T10:12:04.813Z,94783.88
2019-05-22T10:14:37.903Z,94790.30
2019-05-22T10:17:12.286Z,94795.70
2019-05-22T10:19:45.188Z,94797.75
2019-05-22T10:22:18.605Z,94784.86
2019-05-22T10:24:52.242Z,94783.25
2019-05-22T10:27:26.665Z,94770.45
2019-05-22T10:29:59.614Z,94779.19
2019-05-22T10:32:33.238Z,94787.77
2019-05-22T10:35:06.743Z,94788.09
2019-05-22T10:37:39.708Z,94786.14
2019-05-22T10:40:11.649Z,94780.13
2019-05-22T10:42:45.573Z,94787.70
2019-05-22T10:45:18.896Z,94783.16
2019-05-22T10:47:51.436Z,94775.92
2019-05-22T10:50:25.411Z,94775.16
2019-05-22T10:52:58.681Z,94769.19
2019-05-22T10:55:32.234Z,94774.59
2019-05-22T10:58:05.977Z,94768.52
2019-05-22T11:00:38.791Z,94763.64
2019-05-22T11:03:10.475Z,94763.79
2019-05-22T11:05:44.427Z,94753.27
2019-05-22T11:08:17.404Z,94754.39
2019-05-22T11:10:50.584Z,94765.27
2019-05-22T11:13:23.617Z,94759.58
2019-05-22T11:15:55.363Z,94755.78
2019-05-22T11:18:28.077Z,94759.11
2019-05-22T11:21:00.833Z,94756.25
2019-05-22T11:23:50.016Z,94749.82
2019-05-22T11:26:08.084Z,94745.69
2019-05-22T11:28:38.939Z,94740.53
2019-05-22T11:31:12.080Z,94739.83
2019-05-22T11:33:44.732Z,94741.81
2019-05-22T11:36:17.456Z,94740.72
2019-05-22T11:38:48.966Z,94736.80
2019-05-22T11:41:21.684Z,94726.75
2019-05-22T11:43:53.281Z,94728.82
2019-05-22T11:46:26.341Z,94722.93
2019-05-22T11:48:59.120Z,94719.31
2019-05-22T11:51:30.447Z,94718.98
2019-05-22T11:54:09.293Z,94719.54
2019-05-22T11:56:38.635Z,94719.54
2019-05-22T11:59:11.587Z,94718.97
2019-05-22T12:01:43.083Z,94724.45
2019-05-22T12:04:15.616Z,94718.81
2019-05-22T12:06:48.937Z,94713.20
2019-05-22T12:09:22.328Z,94705.49
2019-05-22T12:11:55.299Z,94702.84
2019-05-22T12:14:28.084Z,94692.55
2019-05-22T12:17:00.928Z,94688.11
2019-05-22T12:19:33.833Z,94688.39
2019-05-22T12:22:06.417Z,94697.40
2019-05-22T12:24:39.613Z,94696.03
2019-05-22T12:27:13.154Z,94696.18
2019-05-22T12:29:46.203Z,94702.11
2019-05-22T12:32:18.909Z,94700.52
2019-05-22T12:34:51.556Z,94694.13
2019-05-22T12:37:23.350Z,94693.89
2019-05-22T12:39:56.736Z,94689.55
2019-05-22T12:42:30.021Z,94689.52
2019-05-22T12:45:04.975Z,94684.07
2019-05-22T12:47:39.287Z,94682.00
2019-05-22T12:50:13.568Z,94681.24
2019-05-22T12:52:49.312Z,94667.95
2019-05-22T12:55:22.521Z,94673.96
2019-05-22T12:57:56.747Z,94674.90
2019-05-22T13:00:30.756Z,94664.55
2019-05-22T13:03:05.055Z,94670.12
2019-05-22T13:05:39.543Z,94657.92
2019-05-22T13:08:15.638Z,94664.13
2019-05-22T13:10:49.092Z,94659.06
2019-05-22T13:13:22.259Z,94657.10
2019-05-22T13:15:55.759Z,94659.11
2019-05-22T13:18:30.555Z,94660.09
2019-05-22T13:21:05.932Z,94667.25
2019-05-22T13:23:41.948Z,94668.08
2019-05-22T13:26:15.375Z,94657.63
2019-05-22T13:28:49.005Z,94661.87
2019-05-22T13:31:22.491Z,94657.09
2019-05-22T13:33:56.064Z,94650.86
2019-05-22T13:36:30.020Z,94657.69
2019-05-22T13:39:04.271Z,94659.48
2019-05-22T13:41:37.431Z,94654.80
2019-05-22T13:44:11.724Z,94649.69
2019-05-22T13:46:44.493Z,94645.60
2019-05-22T13:49:17.102Z,94644.70
2019-05-22T13:51:48.641Z,94642.92
2019-05-22T13:54:21.575Z,94644.84
2019-05-22T13:56:54.509Z,94635.61
2019-05-22T13:59:27.069Z,94629.16
2019-05-22T14:01:58.626Z,94624.12
2019-05-22T14:04:31.230Z,94620.10
2019-05-22T14:07:06.560Z,94620.45
2019-05-22T14:09:41.107Z,94617.44
2019-05-22T14:12:14.081Z,94609.42
2019-05-22T14:14:47.004Z,94622.78
2019-05-22T14:17:19.286Z,94604.20
2019-05-22T14:19:52.056Z,94612.59
2019-05-22T14:22:24.872Z,94597.91
2019-05-22T14:24:57.522Z,94598.08
2019-05-22T14:27:30.350Z,94599.42
2019-05-22T14:30:03.359Z,94599.37
2019-05-22T14:32:37.093Z,94604.72
2019-05-22T14:35:10.217Z,94605.66
2019-05-22T14:37:43.732Z,94601.02
2019-05-22T14:40:16.511Z,94605.14
2019-05-22T14:42:49.905Z,94606.84
2019-05-22T14:45:23.836Z,94604.53
2019-05-22T14:47:56.976Z,94605.91
2019-05-22T14:50:32.899Z,94605.52
2019-05-22T14:53:05.673Z,94608.14
2019-05-22T14:55:39.266Z,94604.11
2019-05-22T14:58:13.335Z,94609.55
2019-05-22T15:00:46.663Z,94607.27
2019-05-22T15:03:20.373Z,94606.39
2019-05-22T15:05:53.706Z,94598.69
2019-05-22T15:08:26.327Z,94596.89
2019-05-22T15:10:59.506Z,94589.16
2019-05-22T15:13:30.913Z,94582.84
2019-05-22T15:16:03.796Z,94576.75
2019-05-22T15:18:36.233Z,94580.44
2019-05-22T15:21:09.717Z,94590.70
2019-05-22T15:23:43.754Z,94586.41
2019-05-22T15:26:17.388Z,94589.11
2019-05-22T15:28:50.210Z,94590.03
2019-05-22T15:31:24.171Z,94594.75
2019-05-22T15:33:55.842Z,94591.77
2019-05-22T15:36:28.968Z,94590.91
2019-05-22T15:39:02.601Z,94591.49
2019-05-22T15:41:35.832Z,94590.23
2019-05-22T15:44:09.018Z,94598.72
2019-05-22T15:46:43.388Z,94600.20
2019-05-22T15:49:17.982Z,94604.50
2019-05-22T15:51:50.954Z,94614.19
2019-05-22T15:54:23.070Z,94613.48
2019-05-22T15:56:57.417Z,94610.47
2019-05-22T15:59:31.138Z,94619.84
2019-05-22T16:02:06.712Z,94633.21
2019-05-22T16:04:41.397Z,94632.53
2019-05-22T16:07:15.330Z,94642.20
2019-05-22T16:09:50.809Z,94632.67
2019-05-22T16:12:24.291Z,94642.44
2019-05-22T16:14:56.719Z,94631.52
2019-05-22T16:17:31.298Z,94644.97
2019-05-22T16:20:03.744Z,94631.48
2019-05-22T16:22:36.750Z,94633.91
2019-05-22T16:25:11.550Z,94636.12
2019-05-22T16:27:45.186Z,94633.93
2019-05-22T16:30:18.871Z,94636.97
2019-05-22T16:32:52.226Z,94642.36
2019-05-22T16:35:25.798Z,94638.76
2019-05-22T16:37:58.939Z,94636.27
2019-05-22T16:40:32.150Z,94626.91
2019-05-22T16:43:06.315Z,94625.97
2019-05-22T16:45:40.337Z,94618.78
2019-05-22T16:48:27.702Z,94621.41
2019-05-22T16:50:48.943Z,94617.16
2019-05-22T16:53:23.499Z,94622.22
2019-05-22T16:55:57.786Z,94634.44
2019-05-22T16:58:30.911Z,94641.22
2019-05-22T17:01:02.202Z,94637.16
2019-05-22T17:03:35.391Z,94635.70
2019-05-22T17:06:08.277Z,94631.60
2019-05-22T17:08:41.271Z,94635.34
2019-05-22T17:11:13.179Z,94633.62
2019-05-22T17:13:46.221Z,94640.47
2019-05-22T17:16:19.174Z,94634.95
2019-05-22T17:18:52.275Z,94628.47
2019-05-22T17:21:23.445Z,94635.06
2019-05-22T17:23:56.382Z,94641.13
2019-05-22T17:26:29.631Z,94641.16
2019-05-22T17:29:02.530Z,94639.30
2019-05-22T17:31:35.960Z,94639.00
2019-05-22T17:34:27.960Z,94646.78
2019-05-22T17:37:01.268Z,94646.64
2019-05-22T17:39:36.778Z,94661.66
2019-05-22T17:42:12.881Z,94682.66
2019-05-22T17:44:48.077Z,94690.52
2019-05-22T17:47:23.987Z,94691.56
2019-05-22T17:50:00.812Z,94702.02
2019-05-22T17:52:34.284Z,94693.79
2019-05-22T17:55:07.905Z,94670.01
2019-05-22T17:57:40.487Z,94639.93
2019-05-22T18:00:25.598Z,94634.32
2019-05-22T18:02:59.497Z,94648.67
2019-05-22T18:05:33.626Z,94662.67
2019-05-22T18:08:07.514Z,94664.56
2019-05-22T18:10:41.809Z,94665.47
2019-05-22T18:13:17.427Z,94678.58
2019-05-22T18:15:50.341Z,94683.98
2019-05-22T18:18:22.392Z,94693.33
2019-05-22T18:20:55.633Z,94702.63
2019-05-22T18:23:26.854Z,94710.33
2019-05-22T18:25:59.150Z,94702.04
2019-05-22T18:28:32.147Z,94710.76
2019-05-22T18:31:04.681Z,94721.61
2019-05-22T18:33:37.740Z,94727.00
2019-05-22T18:36:13.560Z,94733.36
2019-05-22T18:38:46.631Z,94742.97
2019-05-22T18:41:19.236Z,94745.38
2019-05-22T18:43:52.217Z,94740.97
2019-05-22T18:46:24.788Z,94747.17
2019-05-22T18:48:58.411Z,94744.92
2019-05-22T18:51:31.877Z,94747.91
2019-05-22T18:54:04.635Z,94747.59
2019-05-22T18:56:37.480Z,94742.77
2019-05-22T18:59:10.158Z,94744.18
2019-05-22T19:01:43.019Z,94742.83
2019-05-22T19:04:15.991Z,94745.50
2019-05-22T19:06:48.601Z,94744.44
2019-05-22T19:09:21.123Z,94759.95
2019-05-22T19:11:53.816Z,94753.52
2019-05-22T19:14:25.869Z,94757.52
2019-05-22T19:16:59.281Z,94757.59
2019-05-22T19:19:32.338Z,94761.88
2019-05-22T19:22:05.146Z,94759.47
2019-05-22T19:24:37.727Z,94761.13
2019-05-22T19:27:10.582Z,94758.20
2019-05-22T19:29:43.365Z,94763.45
2019-05-22T19:32:17.098Z,94765.05
2019-05-22T19:34:50.049Z,94766.34
2019-05-22T19:37:22.582Z,94771.22
2019-05-22T19:39:55.592Z,94769.34
2019-05-22T19:42:28.397Z,94767.76
2019-05-22T19:45:00.971Z,94771.00
2019-05-22T19:47:35.147Z,94769.38
2019-05-22T19:50:22.276Z,94766.72
2019-05-22T19:52:44.856Z,94767.52
2019-05-22T19:55:19.387Z,94763.51
2019-05-22T19:57:52.704Z,94767.53
2019-05-22T20:00:25.514Z,94765.95
2019-05-22T20:02:58.171Z,94773.13
2019-05-22T20:05:31.969Z,94774.72
2019-05-22T20:08:05.344Z,94773.91
2019-05-22T20:10:38.284Z,94779.75
2019-05-22T20:13:12.085Z,94779.22
2019-05-22T20:15:44.549Z,94784.25
2019-05-22T20:18:17.779Z,94788.78
2019-05-22T20:20:48.652Z,94785.08
2019-05-22T20:23:34.711Z,94785.32
2019-05-22T20:25:56.933Z,94782.31
2019-05-22T20:28:28.511Z,94779.94
2019-05-22T20:31:01.241Z,94780.44
2019-05-22T20:33:33.956Z,94780.42
2019-05-22T20:36:07.104Z,94774.06
2019-05-22T20:38:38.577Z,94770.61
2019-05-22T20:41:11.348Z,94774.53
2019-05-22T20:43:44.207Z,94773.16
2019-05-22T20:46:18.878Z,94770.74
2019-05-22T20:48:52.501Z,94774.17
2019-05-22T20:51:25.675Z,94781.84
2019-05-22T20:53:58.038Z,94787.37
2019-05-22T20:56:32.086Z,94791.13
2019-05-22T20:59:05.337Z,94789.75
2019-05-22T21:01:38.457Z,94789.53
2019-05-22T21:04:10.838Z,94791.08
2019-05-22T21:06:50.344Z,94798.09
2019-05-22T21:09:22.375Z,94802.69
2019-05-22T21:11:54.924Z,94800.81
2019-05-22T21:14:27.763Z,94808.52
2019-05-22T21:17:01.139Z,94808.27
2019-05-22T21:19:35.936Z,94805.38
2019-05-22T21:22:10.111Z,94805.59
2019-05-22T21:24:43.569Z,94803.73
2019-05-22T21:27:16.786Z,94805.88
2019-05-22T21:29:49.412Z,94814.38
2019-05-22T21:32:22.467Z,94796.31
2019-05-22T21:34:56.175Z,94804.63
2019-05-22T21:37:29.485Z,94797.94
2019-05-22T21:40:03.094Z,94796.08
2019-05-22T21:42:37.774Z,94799.58
2019-05-22T21:45:11.390Z,94801.73
2019-05-22T21:47:43.971Z,94800.69
2019-05-22T21:50:17.772Z,94802.27
2019-05-22T21:52:50.864Z,94793.45
2019-05-22T21:55:24.531Z,94791.31
2019-05-22T21:57:57.677Z,94792.61
2019-05-22T22:00:49.994Z,94797.30
2019-05-22T22:03:27.370Z,94786.71
2019-05-22T22:06:01.481Z,94782.17
2019-05-22T22:08:34.572Z,94789.00
2019-05-22T22:11:08.509Z,94793.30
2019-05-22T22:13:42.409Z,94799.67
2019-05-22T22:16:15.490Z,94795.95
2019-05-22T22:18:47.923Z,94794.84
2019-05-22T22:21:21.440Z,94795.58
2019-05-22T22:23:54.629Z,94803.56
2019-05-22T22:26:28.097Z,94804.34
2019-05-22T22:29:00.684Z,94803.28
2019-05-22T22:31:35.243Z,94805.91
2019-05-22T22:34:16.431Z,94808.02
2019-05-22T22:36:50.613Z,94805.09
2019-05-22T22:39:23.503Z,94807.41
2019-05-22T22:41:59.847Z,94811.05
2019-05-22T22:44:32.825Z,94809.61
2019-05-22T22:47:13.938Z,94808.25
2019-05-22T22:49:46.841Z,94807.12
2019-05-22T22:52:20.270Z,94814.56
2019-05-22T22:54:53.454Z,94823.59
2019-05-22T22:57:25.372Z,94820.11
2019-05-22T22:59:57.864Z,94822.77
2019-05-22T23:02:34.947Z,94811.02
2019-05-22T23:05:09.880Z,94806.79
2019-05-22T23:07:43.962Z,94812.57
2019-05-22T23:10:17.937Z,94809.50
2019-05-22T23:12:53.944Z,94806.62
2019-05-22T23:15:28.085Z,94801.11
2019-05-22T23:18:01.042Z,94811.12
2019-05-22T23:20:31.620Z,94802.95
2019-05-22T23:23:01.416Z,94803.77
2019-05-22T23:25:36.758Z,94815.33
2019-05-22T23:28:11.166Z,94816.16
2019-05-22T23:30:44.282Z,94813.75
2019-05-22T23:33:17.227Z,94813.77
2019-05-22T23:35:50.468Z,94806.82
2019-05-22T23:38:23.361Z,94803.98
2019-05-22T23:40:57.803Z,94796.86
2019-05-22T23:43:31.820Z,94799.80
2019-05-22T23:46:06.684Z,94797.66
2019-05-22T23:48:41.328Z,94795.82
2019-05-22T23:51:14.370Z,94787.59
2019-05-22T23:53:48.914Z,94780.66
2019-05-22T23:56:22.609Z,94776.69
2019-05-22T23:58:56.423Z,94778.78
